Time;durP1;ratioP1;P1;durP2;ratioP2;P2;SDS_P1;SDS_P2;PMS_P1;PMS_P2;Temp;Humidity;BMP_temperature;BMP_pressure;BME280_temperature;BME280_humidity;BME280_pressure;Samples;Min_cycle;Max_cycle;Signal;HPM_P1;HPM_P2
2022/10/12 00:02:06;;;;;;;14.82;6.53;;;;;;;;;;5092760;28;20501;-56
2022/10/12 00:04:32;;;;;;;18.65;6.78;;;;;;;;;;5094737;28;20115;-52
2022/10/12 00:06:57;;;;;;;23.95;7.45;;;;;;;;;;5091700;28;20035;-55
2022/10/12 00:09:22;;;;;;;18.88;7.35;;;;;;;;;;5089921;28;20086;-57
2022/10/12 00:11:49;;;;;;;19.23;6.78;;;;;;;;;;5084124;28;20052;-55
2022/10/12 00:14:14;;;;;;;24.65;7.03;;;;;;;;;;5089379;28;20019;-55
2022/10/12 00:16:39;;;;;;;23.00;6.30;;;;;;;;;;5088826;28;20030;-55
2022/10/12 00:19:04;;;;;;;17.60;7.40;;;;;;;;;;5079513;28;20016;-56
2022/10/12 00:21:29;;;;;;;26.77;7.45;;;;;;;;;;5086976;28;20545;-55
2022/10/12 00:23:58;;;;;;;13.43;6.32;;;;;;;;;;5091126;28;20027;-56
2022/10/12 00:26:24;;;;;;;16.83;6.90;;;;;;;;;;5090992;28;20103;-54
2022/10/12 00:28:53;;;;;;;19.58;6.70;;;;;;;;;;5090338;28;20477;-57
2022/10/12 00:31:18;;;;;;;17.17;6.35;;;;;;;;;;5083150;28;20062;-55
2022/10/12 00:33:44;;;;;;;22.33;6.82;;;;;;;;;;5086642;28;20533;-53
2022/10/12 00:36:19;;;;;;;16.83;6.60;;;;;;;;;;5100243;28;20036;-55
2022/10/12 00:38:45;;;;;;;20.42;6.63;;;;;;;;;;5085632;28;20518;-56
2022/10/12 00:41:10;;;;;;;25.83;8.00;;;;;;;;;;5090449;28;20070;-56
2022/10/12 00:43:40;;;;;;;29.70;9.85;;;;;;;;;;5091196;28;20107;-55
2022/10/12 00:46:10;;;;;;;23.75;9.35;;;;;;;;;;5084966;28;20028;-55
2022/10/12 00:48:35;;;;;;;33.53;9.00;;;;;;;;;;5088116;28;20058;-56
2022/10/12 00:51:00;;;;;;;26.05;8.82;;;;;;;;;;5091454;28;20094;-56
2022/10/12 00:53:26;;;;;;;21.05;8.27;;;;;;;;;;5088811;28;20031;-56
2022/10/12 00:55:53;;;;;;;22.00;8.35;;;;;;;;;;5090824;28;20051;-53
2022/10/12 00:58:18;;;;;;;33.38;9.18;;;;;;;;;;5092104;28;20430;-56
2022/10/12 01:00:43;;;;;;;22.20;9.02;;;;;;;;;;5092312;28;20012;-56
2022/10/12 01:03:09;;;;;;;25.42;8.10;;;;;;;;;;5084480;28;20077;-57
2022/10/12 01:05:34;;;;;;;21.00;8.10;;;;;;;;;;5089978;28;20287;-56
2022/10/12 01:08:01;;;;;;;19.00;7.45;;;;;;;;;;5086014;28;20038;-55
2022/10/12 01:10:26;;;;;;;20.83;7.05;;;;;;;;;;5077134;28;20114;-56
2022/10/12 01:12:52;;;;;;;14.95;7.07;;;;;;;;;;5083839;28;20115;-56
2022/10/12 01:15:17;;;;;;;21.08;7.07;;;;;;;;;;5089371;28;20028;-56
2022/10/12 01:17:53;;;;;;;19.77;6.82;;;;;;;;;;5084387;28;20440;-56
2022/10/12 01:20:19;;;;;;;17.67;7.03;;;;;;;;;;5083985;28;20698;-56
2022/10/12 01:22:47;;;;;;;19.60;8.05;;;;;;;;;;5094258;28;20016;-55
2022/10/12 01:25:15;;;;;;;19.65;8.48;;;;;;;;;;5093468;28;20020;-55
2022/10/12 01:27:46;;;;;;;21.10;8.35;;;;;;;;;;5082469;28;20023;-55
2022/10/12 01:30:21;;;;;;;18.42;8.60;;;;;;;;;;5095078;28;20038;-56
2022/10/12 01:33:04;;;;;;;20.73;7.93;;;;;;;;;;5089045;28;20046;-54
2022/10/12 01:35:36;;;;;;;23.83;8.20;;;;;;;;;;5082753;28;20024;-56
2022/10/12 01:38:04;;;;;;;24.95;9.02;;;;;;;;;;5095579;28;20016;-55
2022/10/12 01:40:30;;;;;;;23.38;7.38;;;;;;;;;;5092543;28;20016;-55
2022/10/12 01:42:56;;;;;;;17.60;7.57;;;;;;;;;;5081702;28;20727;-55
2022/10/12 01:45:21;;;;;;;21.33;8.07;;;;;;;;;;5091178;28;20018;-55
2022/10/12 01:47:47;;;;;;;19.70;7.85;;;;;;;;;;5090736;28;20433;-54
2022/10/12 01:50:13;;;;;;;17.42;7.43;;;;;;;;;;5093834;28;20023;-55
2022/10/12 01:52:44;;;;;;;26.65;8.10;;;;;;;;;;5099536;28;20018;-55
2022/10/12 01:55:12;;;;;;;24.02;8.88;;;;;;;;;;5094227;28;20070;-57
2022/10/12 01:57:53;;;;;;;24.70;8.55;;;;;;;;;;5093806;28;20027;-55
2022/10/12 02:00:18;;;;;;;15.90;8.27;;;;;;;;;;5091371;28;20023;-56
2022/10/12 02:03:02;;;;;;;19.13;8.02;;;;;;;;;;5091061;28;20026;-56
2022/10/12 02:05:34;;;;;;;17.73;7.50;;;;;;;;;;5091094;28;20039;-54
2022/10/12 02:08:25;;;;;;;21.08;7.50;;;;;;;;;;5092955;28;20085;-55
2022/10/12 02:10:56;;;;;;;21.98;7.22;;;;;;;;;;5090348;28;20040;-56
2022/10/12 02:13:21;;;;;;;19.55;8.23;;;;;;;;;;5093154;28;20023;-56
2022/10/12 02:15:47;;;;;;;20.63;7.93;;;;;;;;;;5087743;28;20020;-55
2022/10/12 02:18:13;;;;;;;19.63;8.68;;;;;;;;;;5097863;28;20091;-55
2022/10/12 02:20:38;;;;;;;19.17;7.60;;;;;;;;;;5091598;28;20432;-56
2022/10/12 02:23:04;;;;;;;16.42;7.97;;;;;;;;;;5091395;28;20470;-55
2022/10/12 02:25:29;;;;;;;14.85;7.07;;;;;;;;;;5083215;28;20024;-57
2022/10/12 02:28:14;;;;;;;16.63;7.75;;;;;;;;;;5083277;28;20516;-57
2022/10/12 02:30:44;;;;;;;14.13;7.07;;;;;;;;;;5094343;28;20039;-56
2022/10/12 02:33:12;;;;;;;16.17;7.63;;;;;;;;;;5096057;28;20082;-55
2022/10/12 02:35:57;;;;;;;14.68;6.95;;;;;;;;;;5095143;28;20078;-56
2022/10/12 02:38:32;;;;;;;18.30;7.55;;;;;;;;;;5089252;28;20119;-56
2022/10/12 02:41:00;;;;;;;14.07;7.07;;;;;;;;;;5088321;28;20107;-56
2022/10/12 02:43:31;;;;;;;20.92;7.85;;;;;;;;;;5091715;28;20148;-56
2022/10/12 02:45:56;;;;;;;13.18;7.68;;;;;;;;;;5086848;28;20069;-55
2022/10/12 02:48:22;;;;;;;17.85;8.52;;;;;;;;;;5089842;28;20024;-56
2022/10/12 02:50:48;;;;;;;17.02;8.13;;;;;;;;;;5087146;28;20028;-56
2022/10/12 02:53:13;;;;;;;19.92;7.28;;;;;;;;;;5085582;28;20015;-56
2022/10/12 02:55:48;;;;;;;17.73;8.65;;;;;;;;;;5100272;28;20355;-56
2022/10/12 02:58:13;;;;;;;21.00;8.10;;;;;;;;;;5093152;28;20058;-56
2022/10/12 03:00:39;;;;;;;17.70;7.93;;;;;;;;;;5079491;28;20057;-56
2022/10/12 03:03:04;;;;;;;25.17;7.90;;;;;;;;;;5083380;28;20449;-56
2022/10/12 03:05:29;;;;;;;21.70;7.97;;;;;;;;;;5085585;28;20044;-56
2022/10/12 03:07:54;;;;;;;17.50;7.80;;;;;;;;;;5091375;28;20016;-56
2022/10/12 03:10:19;;;;;;;20.48;7.93;;;;;;;;;;5089892;28;20117;-56
2022/10/12 03:12:45;;;;;;;18.73;7.88;;;;;;;;;;5088903;28;20032;-56
2022/10/12 03:15:10;;;;;;;16.95;7.05;;;;;;;;;;5092241;28;20027;-56
2022/10/12 03:17:35;;;;;;;22.67;8.15;;;;;;;;;;5083043;28;20034;-54
2022/10/12 03:20:00;;;;;;;17.67;8.20;;;;;;;;;;5087996;28;20024;-56
2022/10/12 03:22:26;;;;;;;26.95;9.40;;;;;;;;;;5092863;28;20088;-56
2022/10/12 03:24:51;;;;;;;27.75;6.90;;;;;;;;;;5081075;28;20082;-56
2022/10/12 03:27:16;;;;;;;27.70;7.70;;;;;;;;;;5095661;28;20424;-55
2022/10/12 03:29:41;;;;;;;35.55;7.90;;;;;;;;;;5093825;28;20618;-55
2022/10/12 03:32:07;;;;;;;45.47;8.27;;;;;;;;;;5088515;28;20044;-55
2022/10/12 03:34:32;;;;;;;75.40;9.80;;;;;;;;;;5089738;28;20023;-56
2022/10/12 03:36:57;;;;;;;54.47;10.10;;;;;;;;;;5086206;28;20047;-54
2022/10/12 03:39:22;;;;;;;47.83;10.30;;;;;;;;;;5085530;28;20038;-55
2022/10/12 03:41:48;;;;;;;41.00;9.98;;;;;;;;;;5089569;28;20031;-53
2022/10/12 03:44:13;;;;;;;49.15;10.85;;;;;;;;;;5085844;28;20032;-55
2022/10/12 03:46:38;;;;;;;27.10;9.85;;;;;;;;;;5081767;28;20045;-55
2022/10/12 03:49:03;;;;;;;27.67;8.68;;;;;;;;;;5089895;28;20394;-56
2022/10/12 03:51:29;;;;;;;48.53;8.70;;;;;;;;;;5087321;28;20035;-56
2022/10/12 03:53:54;;;;;;;57.80;9.40;;;;;;;;;;5091586;28;20069;-55
2022/10/12 03:56:19;;;;;;;41.53;8.10;;;;;;;;;;5090561;28;20118;-55
2022/10/12 03:58:44;;;;;;;45.42;9.73;;;;;;;;;;5083955;28;20029;-55
2022/10/12 04:01:10;;;;;;;39.25;9.07;;;;;;;;;;5091360;28;20031;-55
2022/10/12 04:03:35;;;;;;;28.73;8.30;;;;;;;;;;5085713;28;20028;-56
2022/10/12 04:06:00;;;;;;;29.92;8.88;;;;;;;;;;5090782;28;21031;-55
2022/10/12 04:08:26;;;;;;;24.23;9.45;;;;;;;;;;5090649;28;20072;-55
2022/10/12 04:10:51;;;;;;;46.53;9.48;;;;;;;;;;5085685;28;20093;-55
2022/10/12 04:13:16;;;;;;;35.28;9.07;;;;;;;;;;5089486;28;20047;-56
2022/10/12 04:15:42;;;;;;;49.85;9.55;;;;;;;;;;5086595;28;20107;-56
2022/10/12 04:18:07;;;;;;;39.92;9.30;;;;;;;;;;5090888;28;20043;-56
2022/10/12 04:20:32;;;;;;;25.98;8.82;;;;;;;;;;5086421;28;20486;-53
2022/10/12 04:22:57;;;;;;;25.15;8.40;;;;;;;;;;5087303;28;20012;-57
2022/10/12 04:25:23;;;;;;;39.65;8.77;;;;;;;;;;5080404;28;20103;-56
2022/10/12 04:27:48;;;;;;;32.75;9.40;;;;;;;;;;5090230;28;20497;-56
2022/10/12 04:30:13;;;;;;;40.97;8.43;;;;;;;;;;5072165;28;20432;-54
2022/10/12 04:32:38;;;;;;;21.73;8.55;;;;;;;;;;5093634;28;20019;-57
2022/10/12 04:35:04;;;;;;;34.22;9.55;;;;;;;;;;5099344;28;20380;-58
2022/10/12 04:37:29;;;;;;;58.10;9.80;;;;;;;;;;5092674;28;20059;-54
2022/10/12 04:39:54;;;;;;;80.20;9.45;;;;;;;;;;5079463;28;20141;-55
2022/10/12 04:42:20;;;;;;;50.67;9.40;;;;;;;;;;5074341;28;20111;-54
2022/10/12 04:44:45;;;;;;;83.40;9.77;;;;;;;;;;5082297;28;20016;-55
2022/10/12 04:47:10;;;;;;;38.42;8.73;;;;;;;;;;5078149;28;20550;-58
2022/10/12 04:49:35;;;;;;;52.72;8.88;;;;;;;;;;5090529;28;20427;-54
2022/10/12 04:52:01;;;;;;;25.15;8.13;;;;;;;;;;5091586;28;20038;-54
2022/10/12 04:54:26;;;;;;;93.97;10.32;;;;;;;;;;5095147;28;20031;-57
2022/10/12 04:56:51;;;;;;;42.85;8.40;;;;;;;;;;5085799;28;20024;-57
2022/10/12 04:59:16;;;;;;;58.45;9.05;;;;;;;;;;5090947;28;20036;-56
2022/10/12 05:01:42;;;;;;;36.58;8.00;;;;;;;;;;5086649;28;20119;-57
2022/10/12 05:04:07;;;;;;;55.92;8.88;;;;;;;;;;5080834;28;20394;-56
2022/10/12 05:06:32;;;;;;;48.35;8.63;;;;;;;;;;5091389;28;20058;-55
2022/10/12 05:08:57;;;;;;;102.82;9.68;;;;;;;;;;5084588;28;20020;-56
2022/10/12 05:11:23;;;;;;;76.38;9.20;;;;;;;;;;5084122;28;20127;-56
2022/10/12 05:13:48;;;;;;;66.97;8.40;;;;;;;;;;5092812;28;20031;-56
2022/10/12 05:16:13;;;;;;;107.30;11.32;;;;;;;;;;5090140;28;20111;-57
2022/10/12 05:18:38;;;;;;;30.08;13.25;;;;;;;;;;5087788;28;20012;-57
2022/10/12 05:21:04;;;;;;;29.88;12.50;;;;;;;;;;5089529;28;20470;-56
2022/10/12 05:23:29;;;;;;;16.20;9.98;;;;;;;;;;5091503;28;20095;-56
2022/10/12 05:25:55;;;;;;;20.42;8.90;;;;;;;;;;5086344;28;20108;-57
2022/10/12 05:28:20;;;;;;;16.45;9.52;;;;;;;;;;5086965;28;20114;-58
2022/10/12 05:30:48;;;;;;;14.60;8.60;;;;;;;;;;5082829;28;20036;-55
2022/10/12 05:33:13;;;;;;;17.98;8.55;;;;;;;;;;5087247;28;20008;-57
2022/10/12 05:35:38;;;;;;;17.80;9.00;;;;;;;;;;5089672;28;20088;-56
2022/10/12 05:38:03;;;;;;;18.65;8.07;;;;;;;;;;5084231;28;20123;-57
2022/10/12 05:40:28;;;;;;;41.28;8.57;;;;;;;;;;5083434;28;20031;-56
2022/10/12 05:42:54;;;;;;;17.25;7.53;;;;;;;;;;5084525;28;20025;-56
2022/10/12 05:45:19;;;;;;;17.77;7.53;;;;;;;;;;5077997;28;20031;-56
2022/10/12 05:47:47;;;;;;;19.25;7.30;;;;;;;;;;5081122;28;20024;-57
2022/10/12 05:50:13;;;;;;;20.70;8.93;;;;;;;;;;5088752;28;20461;-57
2022/10/12 05:52:38;;;;;;;34.15;10.27;;;;;;;;;;5085180;28;20031;-56
2022/10/12 05:55:03;;;;;;;21.40;8.40;;;;;;;;;;5085234;28;20106;-55
2022/10/12 05:57:28;;;;;;;25.67;8.40;;;;;;;;;;5079195;28;20024;-56
2022/10/12 05:59:54;;;;;;;20.27;8.80;;;;;;;;;;5076298;28;20012;-56
2022/10/12 06:02:19;;;;;;;16.77;7.47;;;;;;;;;;5092767;28;20016;-57
2022/10/12 06:04:44;;;;;;;15.57;7.95;;;;;;;;;;5094459;28;20052;-56
2022/10/12 06:07:09;;;;;;;14.48;7.00;;;;;;;;;;5091305;28;20028;-56
2022/10/12 06:09:37;;;;;;;15.50;7.53;;;;;;;;;;5088023;28;20027;-56
2022/10/12 06:12:03;;;;;;;31.45;9.25;;;;;;;;;;5088897;28;20116;-55
2022/10/12 06:14:28;;;;;;;34.85;7.95;;;;;;;;;;5088625;28;20073;-55
2022/10/12 06:16:53;;;;;;;63.85;7.97;;;;;;;;;;5083484;28;20470;-55
2022/10/12 06:19:18;;;;;;;150.82;9.95;;;;;;;;;;5090564;28;20016;-56
2022/10/12 06:21:44;;;;;;;94.10;8.35;;;;;;;;;;5081133;28;20504;-56
2022/10/12 06:24:09;;;;;;;278.52;10.55;;;;;;;;;;5091705;28;20034;-56
2022/10/12 06:26:34;;;;;;;77.95;6.15;;;;;;;;;;5097049;28;20040;-57
2022/10/12 06:29:00;;;;;;;69.65;8.27;;;;;;;;;;5092421;28;20019;-56
2022/10/12 06:31:25;;;;;;;64.70;8.23;;;;;;;;;;5114733;27;20037;-56
2022/10/12 06:33:52;;;;;;;114.38;8.95;;;;;;;;;;5085436;28;20019;-55
2022/10/12 06:36:17;;;;;;;68.55;8.60;;;;;;;;;;5092722;28;20023;-55
2022/10/12 06:38:42;;;;;;;172.25;9.18;;;;;;;;;;5084457;28;20025;-56
2022/10/12 06:41:08;;;;;;;172.38;9.75;;;;;;;;;;5085565;28;20042;-56
2022/10/12 06:43:33;;;;;;;72.65;8.77;;;;;;;;;;5095137;28;20016;-55
2022/10/12 06:45:59;;;;;;;88.45;9.35;;;;;;;;;;5092161;28;20032;-57
2022/10/12 06:48:24;;;;;;;122.13;8.45;;;;;;;;;;5099328;28;20477;-56
2022/10/12 06:50:50;;;;;;;95.97;7.28;;;;;;;;;;5081777;28;20028;-57
2022/10/12 06:53:18;;;;;;;128.10;9.32;;;;;;;;;;5078380;28;20466;-57
2022/10/12 06:55:44;;;;;;;57.47;7.45;;;;;;;;;;5091175;28;20584;-58
2022/10/12 06:58:09;;;;;;;71.88;8.30;;;;;;;;;;5089327;28;20031;-57
2022/10/12 07:00:35;;;;;;;67.40;7.05;;;;;;;;;;5083214;28;20038;-57
2022/10/12 07:03:00;;;;;;;43.63;6.60;;;;;;;;;;5090798;28;20111;-57
2022/10/12 07:05:26;;;;;;;81.60;7.38;;;;;;;;;;5085989;28;20047;-57
2022/10/12 07:07:51;;;;;;;41.75;7.03;;;;;;;;;;5095996;28;20412;-56
2022/10/12 07:10:16;;;;;;;34.08;6.15;;;;;;;;;;5093376;28;20089;-56
2022/10/12 07:12:41;;;;;;;34.08;5.78;;;;;;;;;;5086917;28;20032;-56
2022/10/12 07:15:07;;;;;;;47.17;6.03;;;;;;;;;;5092341;28;20032;-57
2022/10/12 07:17:32;;;;;;;55.55;5.95;;;;;;;;;;5093302;28;20134;-57
2022/10/12 07:19:57;;;;;;;31.30;7.45;;;;;;;;;;5091146;28;20024;-56
2022/10/12 07:22:23;;;;;;;66.32;8.60;;;;;;;;;;5096040;28;20106;-58
2022/10/12 07:24:48;;;;;;;61.05;8.75;;;;;;;;;;5090136;28;20016;-56
2022/10/12 07:27:13;;;;;;;57.35;8.73;;;;;;;;;;5077835;28;20148;-57
2022/10/12 07:29:39;;;;;;;51.17;8.55;;;;;;;;;;5088263;28;20023;-57
2022/10/12 07:32:04;;;;;;;74.45;10.23;;;;;;;;;;5079884;28;20363;-56
2022/10/12 07:34:30;;;;;;;79.82;10.13;;;;;;;;;;5091073;28;20488;-57
2022/10/12 07:36:55;;;;;;;62.58;10.60;;;;;;;;;;5093393;28;20020;-57
2022/10/12 07:39:21;;;;;;;41.10;10.25;;;;;;;;;;5093272;28;20022;-56
2022/10/12 07:41:47;;;;;;;25.80;8.70;;;;;;;;;;5079322;28;20073;-57
2022/10/12 07:44:12;;;;;;;35.63;9.70;;;;;;;;;;5080286;28;20016;-57
2022/10/12 07:46:37;;;;;;;42.35;9.35;;;;;;;;;;5085895;28;20035;-57
2022/10/12 07:49:02;;;;;;;59.13;9.35;;;;;;;;;;5093622;28;20008;-57
2022/10/12 07:51:28;;;;;;;27.88;9.73;;;;;;;;;;5089553;28;20050;-57
2022/10/12 07:53:53;;;;;;;22.02;9.18;;;;;;;;;;5091608;28;20023;-57
2022/10/12 07:56:18;;;;;;;24.05;9.77;;;;;;;;;;5093406;28;20059;-57
2022/10/12 07:58:53;;;;;;;53.97;10.82;;;;;;;;;;5089074;28;20020;-56
2022/10/12 08:01:18;;;;;;;27.85;10.70;;;;;;;;;;5090691;28;20015;-56
2022/10/12 08:03:44;;;;;;;17.48;9.77;;;;;;;;;;5092306;28;20023;-57
2022/10/12 08:06:10;;;;;;;22.15;12.07;;;;;;;;;;5091924;28;20024;-57
2022/10/12 08:08:35;;;;;;;19.95;10.80;;;;;;;;;;5088975;28;20157;-57
2022/10/12 08:11:00;;;;;;;22.02;11.13;;;;;;;;;;5091480;28;20020;-57
2022/10/12 08:13:26;;;;;;;19.30;10.05;;;;;;;;;;5087579;28;20038;-57
2022/10/12 08:15:51;;;;;;;18.70;9.70;;;;;;;;;;5086336;28;20016;-56
2022/10/12 08:18:16;;;;;;;18.27;9.73;;;;;;;;;;5077179;28;20569;-57
2022/10/12 08:20:41;;;;;;;16.02;9.70;;;;;;;;;;5079745;28;20024;-56
2022/10/12 08:23:07;;;;;;;13.63;8.02;;;;;;;;;;5084894;28;20629;-58
2022/10/12 08:25:33;;;;;;;17.00;8.13;;;;;;;;;;5091300;28;20104;-57
2022/10/12 08:27:59;;;;;;;9.38;6.38;;;;;;;;;;5091422;28;20031;-57
2022/10/12 08:30:25;;;;;;;14.65;6.80;;;;;;;;;;5093430;28;20016;-57
2022/10/12 08:32:51;;;;;;;12.65;6.95;;;;;;;;;;5089989;28;20042;-57
2022/10/12 08:35:16;;;;;;;13.50;7.88;;;;;;;;;;5086301;28;20019;-57
2022/10/12 08:37:41;;;;;;;13.70;8.45;;;;;;;;;;5079015;28;20044;-57
2022/10/12 08:40:08;;;;;;;11.48;7.13;;;;;;;;;;5090257;28;20039;-58
2022/10/12 08:42:53;;;;;;;14.38;7.18;;;;;;;;;;5081717;28;20036;-57
2022/10/12 08:45:22;;;;;;;15.05;6.93;;;;;;;;;;5084415;28;20102;-57
2022/10/12 08:47:57;;;;;;;10.88;6.75;;;;;;;;;;5078195;28;20572;-57
2022/10/12 08:50:27;;;;;;;12.68;7.20;;;;;;;;;;5086481;28;20051;-58
2022/10/12 08:53:02;;;;;;;12.90;7.32;;;;;;;;;;5087512;28;20024;-57
2022/10/12 08:55:32;;;;;;;14.20;6.95;;;;;;;;;;5088520;28;20497;-58
2022/10/12 08:57:57;;;;;;;13.85;7.68;;;;;;;;;;5076306;28;20026;-58
2022/10/12 09:00:22;;;;;;;15.23;8.00;;;;;;;;;;5084447;28;20028;-57
2022/10/12 09:02:48;;;;;;;12.88;7.25;;;;;;;;;;5084348;28;20651;-58
2022/10/12 09:05:18;;;;;;;12.80;6.70;;;;;;;;;;5092925;28;20050;-56
2022/10/12 09:08:15;;;;;;;12.43;6.03;;;;;;;;;;5087045;28;20020;-57
2022/10/12 09:10:44;;;;;;;14.73;6.25;;;;;;;;;;5072675;28;20384;-57
2022/10/12 09:13:16;;;;;;;13.73;6.28;;;;;;;;;;5084602;28;21106;-57
2022/10/12 09:15:48;;;;;;;12.88;6.35;;;;;;;;;;5092714;28;20035;-57
2022/10/12 09:18:19;;;;;;;9.93;6.13;;;;;;;;;;5083611;28;20019;-57
2022/10/12 09:20:48;;;;;;;13.73;6.30;;;;;;;;;;5084423;28;20050;-57
2022/10/12 09:23:26;;;;;;;16.73;6.65;;;;;;;;;;5081913;28;20226;-57
2022/10/12 09:25:56;;;;;;;13.55;6.97;;;;;;;;;;5081249;28;20031;-57
2022/10/12 09:28:36;;;;;;;11.80;7.00;;;;;;;;;;5087936;28;20480;-57
2022/10/12 09:31:20;;;;;;;14.07;6.75;;;;;;;;;;5070958;28;20024;-55
2022/10/12 09:33:50;;;;;;;15.95;7.57;;;;;;;;;;5078357;28;20020;-56
2022/10/12 09:36:17;;;;;;;19.33;8.30;;;;;;;;;;5082631;28;20025;-56
2022/10/12 09:38:42;;;;;;;13.90;7.88;;;;;;;;;;5091124;28;20035;-56
2022/10/12 09:41:11;;;;;;;12.98;7.53;;;;;;;;;;5083029;28;20024;-56
2022/10/12 09:43:36;;;;;;;19.90;7.50;;;;;;;;;;5088675;28;20028;-56
2022/10/12 09:46:05;;;;;;;17.08;8.05;;;;;;;;;;5081160;28;20117;-57
2022/10/12 09:48:30;;;;;;;14.80;7.90;;;;;;;;;;5087850;28;20024;-56
2022/10/12 09:51:02;;;;;;;13.82;7.82;;;;;;;;;;5087918;28;20374;-57
2022/10/12 09:53:27;;;;;;;15.93;7.60;;;;;;;;;;5091677;28;20055;-55
2022/10/12 09:55:53;;;;;;;11.93;7.20;;;;;;;;;;5088192;28;20073;-55
2022/10/12 09:58:19;;;;;;;14.98;7.20;;;;;;;;;;5093120;28;20027;-57
2022/10/12 10:00:44;;;;;;;16.95;7.20;;;;;;;;;;5090297;28;20074;-56
2022/10/12 10:03:19;;;;;;;17.05;7.53;;;;;;;;;;5091524;28;20032;-56
2022/10/12 10:05:44;;;;;;;19.02;7.43;;;;;;;;;;5092266;28;20454;-56
2022/10/12 10:08:12;;;;;;;16.60;7.43;;;;;;;;;;5089287;28;20012;-56
2022/10/12 10:10:37;;;;;;;18.30;7.63;;;;;;;;;;5086112;28;20039;-56
2022/10/12 10:13:05;;;;;;;22.08;7.25;;;;;;;;;;5089144;28;20028;-55
2022/10/12 10:15:39;;;;;;;16.65;7.22;;;;;;;;;;5098500;28;20031;-56
2022/10/12 10:18:06;;;;;;;20.58;7.00;;;;;;;;;;5091588;28;20032;-56
2022/10/12 10:20:41;;;;;;;27.83;7.82;;;;;;;;;;5091989;28;20036;-56
2022/10/12 10:23:16;;;;;;;25.92;7.65;;;;;;;;;;5085563;28;20107;-56
2022/10/12 10:25:42;;;;;;;28.40;8.10;;;;;;;;;;5096165;28;20023;-58
2022/10/12 10:28:20;;;;;;;18.67;7.45;;;;;;;;;;5094359;28;20440;-56
2022/10/12 10:31:20;;;;;;;27.38;8.95;;;;;;;;;;5093996;28;20039;-55
2022/10/12 10:34:06;;;;;;;21.45;7.65;;;;;;;;;;5060436;28;20032;-56
2022/10/12 10:36:32;;;;;;;17.67;8.18;;;;;;;;;;5082310;28;20289;-56
2022/10/12 10:39:01;;;;;;;31.55;8.00;;;;;;;;;;5079879;28;20024;-56
2022/10/12 10:41:29;;;;;;;21.77;8.27;;;;;;;;;;5090476;28;20032;-55
2022/10/12 10:43:54;;;;;;;21.90;8.35;;;;;;;;;;5088444;28;20440;-56
2022/10/12 10:46:23;;;;;;;18.25;7.88;;;;;;;;;;5091349;28;20032;-57
2022/10/12 10:49:00;;;;;;;20.95;7.57;;;;;;;;;;5092335;28;20494;-56
2022/10/12 10:51:58;;;;;;;20.20;7.32;;;;;;;;;;5076583;28;20045;-56
2022/10/12 10:54:23;;;;;;;15.27;6.93;;;;;;;;;;5048087;28;20462;-58
2022/10/12 10:56:52;;;;;;;14.38;6.95;;;;;;;;;;5092893;28;20115;-56
2022/10/12 10:59:36;;;;;;;19.42;7.40;;;;;;;;;;5087181;28;20027;-55
2022/10/12 11:02:03;;;;;;;12.60;6.57;;;;;;;;;;5088753;28;20016;-56
2022/10/12 11:04:30;;;;;;;15.10;6.80;;;;;;;;;;5082440;28;20071;-56
2022/10/12 11:06:56;;;;;;;11.98;5.93;;;;;;;;;;5096690;28;20437;-56
2022/10/12 11:09:31;;;;;;;23.20;6.63;;;;;;;;;;5074058;28;20024;-56
2022/10/12 11:11:59;;;;;;;31.10;6.60;;;;;;;;;;5093649;27;20059;-57
2022/10/12 11:14:26;;;;;;;27.40;8.85;;;;;;;;;;5090369;28;20363;-61
2022/10/12 11:16:55;;;;;;;15.90;6.25;;;;;;;;;;5086812;28;20028;-56
2022/10/12 11:19:23;;;;;;;20.60;6.90;;;;;;;;;;5091620;28;20077;-55
2022/10/12 11:21:53;;;;;;;20.55;7.03;;;;;;;;;;5085509;28;20016;-56
2022/10/12 11:24:20;;;;;;;21.85;7.30;;;;;;;;;;5088147;28;20015;-55
2022/10/12 11:26:50;;;;;;;16.25;6.85;;;;;;;;;;5085360;28;20536;-56
2022/10/12 11:29:16;;;;;;;19.65;7.25;;;;;;;;;;5083310;28;20072;-56
2022/10/12 11:31:51;;;;;;;21.00;7.68;;;;;;;;;;5083879;28;20070;-57
2022/10/12 11:34:17;;;;;;;19.95;7.85;;;;;;;;;;5076905;28;20099;-56
2022/10/12 11:36:42;;;;;;;18.42;7.15;;;;;;;;;;5087666;28;20110;-55
2022/10/12 11:39:13;;;;;;;23.70;8.00;;;;;;;;;;5088939;28;20028;-57
2022/10/12 11:41:48;;;;;;;19.00;8.05;;;;;;;;;;5080222;28;20152;-56
2022/10/12 11:44:16;;;;;;;21.30;8.70;;;;;;;;;;5080021;28;20031;-56
2022/10/12 11:46:41;;;;;;;16.38;7.53;;;;;;;;;;5086139;28;20039;-56
2022/10/12 11:49:14;;;;;;;23.95;7.88;;;;;;;;;;5091396;28;20039;-56
2022/10/12 11:51:40;;;;;;;21.17;7.85;;;;;;;;;;5083965;28;20407;-55
2022/10/12 11:54:10;;;;;;;25.23;8.55;;;;;;;;;;5080528;28;20470;-56
2022/10/12 11:56:39;;;;;;;16.52;7.57;;;;;;;;;;5084373;28;20019;-56
2022/10/12 11:59:13;;;;;;;22.45;8.20;;;;;;;;;;5085892;28;20160;-56
2022/10/12 12:01:42;;;;;;;12.13;7.22;;;;;;;;;;5080929;28;20027;-56
2022/10/12 12:04:26;;;;;;;18.17;7.22;;;;;;;;;;5078814;28;20044;-56
2022/10/12 12:07:01;;;;;;;13.65;6.25;;;;;;;;;;5083101;28;20570;-56
2022/10/12 12:09:44;;;;;;;20.45;6.97;;;;;;;;;;5080368;28;20027;-56
2022/10/12 12:12:22;;;;;;;13.95;7.03;;;;;;;;;;5075309;28;20071;-56
2022/10/12 12:14:54;;;;;;;13.38;6.75;;;;;;;;;;5079828;28;20405;-56
2022/10/12 12:17:19;;;;;;;13.80;6.90;;;;;;;;;;5085198;28;20024;-56
2022/10/12 12:19:57;;;;;;;15.05;6.68;;;;;;;;;;5091489;28;20078;-56
2022/10/12 12:22:29;;;;;;;15.90;6.68;;;;;;;;;;5086404;28;20305;-56
2022/10/12 12:25:07;;;;;;;17.45;6.97;;;;;;;;;;5082670;28;20032;-56
2022/10/12 12:27:35;;;;;;;19.02;6.78;;;;;;;;;;5077618;28;20020;-55
2022/10/12 12:30:01;;;;;;;16.40;6.72;;;;;;;;;;5089309;28;20024;-57
2022/10/12 12:32:38;;;;;;;15.60;6.57;;;;;;;;;;5093194;28;20034;-57
2022/10/12 12:35:03;;;;;;;24.77;7.15;;;;;;;;;;5089508;28;20016;-56
2022/10/12 12:37:29;;;;;;;21.48;7.22;;;;;;;;;;5094577;28;20109;-57
2022/10/12 12:39:55;;;;;;;28.25;6.65;;;;;;;;;;5088952;28;20023;-55
2022/10/12 12:42:21;;;;;;;27.67;7.55;;;;;;;;;;5087188;28;20024;-57
2022/10/12 12:44:47;;;;;;;24.83;7.85;;;;;;;;;;5083414;28;20054;-53
2022/10/12 12:47:12;;;;;;;21.48;7.20;;;;;;;;;;5084761;28;20047;-55
2022/10/12 12:49:50;;;;;;;17.95;7.05;;;;;;;;;;5072931;28;20113;-58
2022/10/12 12:52:17;;;;;;;20.38;6.00;;;;;;;;;;5071010;28;20081;-56
2022/10/12 12:55:03;;;;;;;17.58;6.78;;;;;;;;;;5078932;28;20031;-57
2022/10/12 12:57:41;;;;;;;19.00;6.82;;;;;;;;;;5043496;28;20067;-57
2022/10/12 13:00:25;;;;;;;17.38;6.82;;;;;;;;;;5083061;28;20103;-57
2022/10/12 13:02:59;;;;;;;17.23;6.45;;;;;;;;;;5081641;28;20315;-55
2022/10/12 13:05:32;;;;;;;13.98;6.25;;;;;;;;;;5079226;28;20121;-55
2022/10/12 13:08:00;;;;;;;19.20;6.53;;;;;;;;;;5075974;28;20481;-58
2022/10/12 13:10:29;;;;;;;34.70;7.65;;;;;;;;;;5080202;28;20311;-56
2022/10/12 13:12:57;;;;;;;22.00;7.68;;;;;;;;;;5078972;28;20420;-57
2022/10/12 13:15:26;;;;;;;23.92;7.10;;;;;;;;;;5083343;28;20012;-56
2022/10/12 13:18:17;;;;;;;26.20;6.90;;;;;;;;;;5082458;28;20043;-57
2022/10/12 13:20:44;;;;;;;20.42;7.22;;;;;;;;;;5085154;28;20024;-59
2022/10/12 13:23:10;;;;;;;18.05;7.18;;;;;;;;;;5073659;28;20045;-57
2022/10/12 13:25:45;;;;;;;21.45;6.82;;;;;;;;;;5075978;28;20063;-58
2022/10/12 13:28:15;;;;;;;20.58;6.85;;;;;;;;;;5082206;28;20082;-56
2022/10/12 13:30:50;;;;;;;18.45;7.47;;;;;;;;;;5077924;28;20401;-57
2022/10/12 13:33:28;;;;;;;16.98;8.18;;;;;;;;;;5080947;28;20111;-57
2022/10/12 13:35:54;;;;;;;18.88;7.20;;;;;;;;;;5085333;28;20028;-56
2022/10/12 13:38:24;;;;;;;20.77;7.22;;;;;;;;;;5081829;28;20029;-56
2022/10/12 13:40:52;;;;;;;19.20;7.25;;;;;;;;;;5084559;28;20029;-56
2022/10/12 13:43:26;;;;;;;19.83;7.80;;;;;;;;;;5089335;28;20038;-55
2022/10/12 13:45:52;;;;;;;22.00;7.07;;;;;;;;;;5090806;28;20031;-56
2022/10/12 13:48:18;;;;;;;20.70;7.10;;;;;;;;;;5084118;28;20378;-55
2022/10/12 13:50:56;;;;;;;23.48;7.90;;;;;;;;;;5079787;28;20024;-57
2022/10/12 13:53:22;;;;;;;18.17;6.88;;;;;;;;;;5080315;28;20358;-55
2022/10/12 13:55:52;;;;;;;21.83;6.93;;;;;;;;;;5079461;28;20035;-56
2022/10/12 13:58:26;;;;;;;16.80;7.10;;;;;;;;;;5076427;28;20031;-56
2022/10/12 14:00:51;;;;;;;15.10;6.63;;;;;;;;;;5075258;28;20016;-57
2022/10/12 14:03:16;;;;;;;22.05;6.10;;;;;;;;;;5080662;28;20050;-57
2022/10/12 14:05:44;;;;;;;24.08;6.72;;;;;;;;;;5078969;28;20413;-57
2022/10/12 14:08:11;;;;;;;15.93;6.18;;;;;;;;;;5076172;28;20067;-56
2022/10/12 14:10:37;;;;;;;27.20;6.53;;;;;;;;;;5069497;28;20024;-57
2022/10/12 14:13:03;;;;;;;19.05;6.63;;;;;;;;;;5085974;28;20020;-57
2022/10/12 14:15:32;;;;;;;16.52;6.60;;;;;;;;;;5075725;28;20749;-57
2022/10/12 14:17:58;;;;;;;23.17;6.20;;;;;;;;;;5068708;28;20052;-56
2022/10/12 14:20:27;;;;;;;21.40;6.32;;;;;;;;;;5074036;28;20061;-57
2022/10/12 14:22:52;;;;;;;24.17;6.20;;;;;;;;;;5077088;28;20116;-57
2022/10/12 14:25:25;;;;;;;24.38;7.05;;;;;;;;;;5081351;28;20110;-55
2022/10/12 14:27:54;;;;;;;13.73;5.82;;;;;;;;;;5088819;28;20020;-57
2022/10/12 14:30:21;;;;;;;16.60;6.03;;;;;;;;;;5079336;28;20073;-57
2022/10/12 14:32:46;;;;;;;17.05;6.57;;;;;;;;;;5078467;28;20082;-56
2022/10/12 14:35:18;;;;;;;23.20;6.00;;;;;;;;;;5080833;28;20412;-57